sensor_id;sensor_type;location;lat;lon;timestamp;temperature;humidity
29241;DHT22;16268;49.880;8.648;2022-08-19T00:01:31;22.40;99.90
29241;DHT22;16268;49.880;8.648;2022-08-19T00:04:03;22.40;99.90
29241;DHT22;16268;49.880;8.648;2022-08-19T00:06:32;22.40;99.90
29241;DHT22;16268;49.880;8.648;2022-08-19T00:08:59;22.40;99.90
29241;DHT22;16268;49.880;8.648;2022-08-19T00:11:26;22.40;99.90
29241;DHT22;16268;49.880;8.648;2022-08-19T00:13:53;22.40;99.90
29241;DHT22;16268;49.880;8.648;2022-08-19T00:16:19;22.50;99.90
29241;DHT22;16268;49.880;8.648;2022-08-19T00:18:46;22.40;99.90
29241;DHT22;16268;49.880;8.648;2022-08-19T00:21:12;22.30;99.90
29241;DHT22;16268;49.880;8.648;2022-08-19T00:23:38;22.30;99.90
29241;DHT22;16268;49.880;8.648;2022-08-19T00:26:05;22.20;99.90
29241;DHT22;16268;49.880;8.648;2022-08-19T00:28:32;22.20;99.90
29241;DHT22;16268;49.880;8.648;2022-08-19T00:30:58;22.20;99.90
29241;DHT22;16268;49.880;8.648;2022-08-19T00:33:24;22.20;99.90
29241;DHT22;16268;49.880;8.648;2022-08-19T00:35:49;22.20;99.90
29241;DHT22;16268;49.880;8.648;2022-08-19T00:38:15;22.20;99.90
29241;DHT22;16268;49.880;8.648;2022-08-19T00:40:45;22.10;99.90
29241;DHT22;16268;49.880;8.648;2022-08-19T00:43:12;22.10;99.90
29241;DHT22;16268;49.880;8.648;2022-08-19T00:45:39;22.20;99.90
29241;DHT22;16268;49.880;8.648;2022-08-19T00:48:10;22.20;99.90
29241;DHT22;16268;49.880;8.648;2022-08-19T00:50:35;22.20;99.90
29241;DHT22;16268;49.880;8.648;2022-08-19T00:53:02;22.10;99.90
29241;DHT22;16268;49.880;8.648;2022-08-19T00:55:28;22.10;99.90
29241;DHT22;16268;49.880;8.648;2022-08-19T00:58:03;22.10;99.90
29241;DHT22;16268;49.880;8.648;2022-08-19T01:00:30;22.00;99.90
29241;DHT22;16268;49.880;8.648;2022-08-19T01:02:56;21.90;99.90
29241;DHT22;16268;49.880;8.648;2022-08-19T01:05:27;21.90;99.90
29241;DHT22;16268;49.880;8.648;2022-08-19T01:07:54;21.90;99.90
29241;DHT22;16268;49.880;8.648;2022-08-19T01:10:24;22.00;99.90
29241;DHT22;16268;49.880;8.648;2022-08-19T01:12:50;21.90;99.90
29241;DHT22;16268;49.880;8.648;2022-08-19T01:15:20;22.00;99.90
29241;DHT22;16268;49.880;8.648;2022-08-19T01:17:46;21.90;99.90
29241;DHT22;16268;49.880;8.648;2022-08-19T01:20:15;21.90;99.90
29241;DHT22;16268;49.880;8.648;2022-08-19T01:22:45;21.90;99.90
29241;DHT22;16268;49.880;8.648;2022-08-19T01:25:16;21.90;99.90
29241;DHT22;16268;49.880;8.648;2022-08-19T01:27:44;21.90;99.90
29241;DHT22;16268;49.880;8.648;2022-08-19T01:30:24;21.90;99.90
29241;DHT22;16268;49.880;8.648;2022-08-19T01:32:51;22.00;99.90
29241;DHT22;16268;49.880;8.648;2022-08-19T01:35:18;22.00;99.90
29241;DHT22;16268;49.880;8.648;2022-08-19T01:37:48;22.10;99.90
29241;DHT22;16268;49.880;8.648;2022-08-19T01:40:15;22.10;99.90
29241;DHT22;16268;49.880;8.648;2022-08-19T01:42:41;22.10;99.90
29241;DHT22;16268;49.880;8.648;2022-08-19T01:45:07;22.10;99.90
29241;DHT22;16268;49.880;8.648;2022-08-19T01:47:35;22.10;99.90
29241;DHT22;16268;49.880;8.648;2022-08-19T01:50:00;22.20;99.90
29241;DHT22;16268;49.880;8.648;2022-08-19T01:52:27;22.20;99.90
29241;DHT22;16268;49.880;8.648;2022-08-19T01:54:53;22.30;99.90
29241;DHT22;16268;49.880;8.648;2022-08-19T01:57:18;22.20;99.90
29241;DHT22;16268;49.880;8.648;2022-08-19T01:59:44;22.20;99.90
29241;DHT22;16268;49.880;8.648;2022-08-19T02:02:11;22.20;99.90
29241;DHT22;16268;49.880;8.648;2022-08-19T02:04:37;22.20;99.90
29241;DHT22;16268;49.880;8.648;2022-08-19T02:07:06;22.30;99.90
29241;DHT22;16268;49.880;8.648;2022-08-19T02:09:33;22.20;99.90
29241;DHT22;16268;49.880;8.648;2022-08-19T02:11:58;22.20;99.90
29241;DHT22;16268;49.880;8.648;2022-08-19T02:14:24;22.20;99.90
29241;DHT22;16268;49.880;8.648;2022-08-19T02:16:50;22.20;99.90
29241;DHT22;16268;49.880;8.648;2022-08-19T02:19:15;22.10;99.90
29241;DHT22;16268;49.880;8.648;2022-08-19T02:21:41;22.20;99.90
29241;DHT22;16268;49.880;8.648;2022-08-19T02:24:08;22.20;99.90
29241;DHT22;16268;49.880;8.648;2022-08-19T02:26:34;22.10;99.90
29241;DHT22;16268;49.880;8.648;2022-08-19T02:29:00;22.10;99.90
29241;DHT22;16268;49.880;8.648;2022-08-19T02:31:26;22.10;99.90
29241;DHT22;16268;49.880;8.648;2022-08-19T02:33:53;22.00;99.90
29241;DHT22;16268;49.880;8.648;2022-08-19T02:36:19;22.00;99.90
29241;DHT22;16268;49.880;8.648;2022-08-19T02:38:45;21.90;99.90
29241;DHT22;16268;49.880;8.648;2022-08-19T02:41:19;21.80;99.90
29241;DHT22;16268;49.880;8.648;2022-08-19T02:43:45;21.90;99.90
29241;DHT22;16268;49.880;8.648;2022-08-19T02:46:17;21.90;99.90
29241;DHT22;16268;49.880;8.648;2022-08-19T02:48:43;21.90;99.90
29241;DHT22;16268;49.880;8.648;2022-08-19T02:51:16;21.90;99.90
29241;DHT22;16268;49.880;8.648;2022-08-19T02:53:41;21.90;99.90
29241;DHT22;16268;49.880;8.648;2022-08-19T02:56:07;21.90;99.90
29241;DHT22;16268;49.880;8.648;2022-08-19T02:58:33;21.90;99.90
29241;DHT22;16268;49.880;8.648;2022-08-19T03:00:59;21.80;99.90
29241;DHT22;16268;49.880;8.648;2022-08-19T03:03:24;21.80;99.90
29241;DHT22;16268;49.880;8.648;2022-08-19T03:05:50;21.80;99.90
29241;DHT22;16268;49.880;8.648;2022-08-19T03:08:16;21.70;99.90
29241;DHT22;16268;49.880;8.648;2022-08-19T03:10:47;21.60;99.90
29241;DHT22;16268;49.880;8.648;2022-08-19T03:13:15;21.70;99.90
29241;DHT22;16268;49.880;8.648;2022-08-19T03:15:43;21.70;99.90
29241;DHT22;16268;49.880;8.648;2022-08-19T03:18:10;21.80;99.90
29241;DHT22;16268;49.880;8.648;2022-08-19T03:20:48;21.70;99.90
29241;DHT22;16268;49.880;8.648;2022-08-19T03:23:15;21.60;99.90
29241;DHT22;16268;49.880;8.648;2022-08-19T03:25:43;21.60;99.90
29241;DHT22;16268;49.880;8.648;2022-08-19T03:28:11;21.60;99.90
29241;DHT22;16268;49.880;8.648;2022-08-19T03:30:38;21.70;99.90
29241;DHT22;16268;49.880;8.648;2022-08-19T03:33:06;21.70;99.90
29241;DHT22;16268;49.880;8.648;2022-08-19T03:35:32;21.70;99.90
29241;DHT22;16268;49.880;8.648;2022-08-19T03:37:59;21.80;99.90
29241;DHT22;16268;49.880;8.648;2022-08-19T03:40:25;21.70;99.90
29241;DHT22;16268;49.880;8.648;2022-08-19T03:42:50;21.70;99.90
29241;DHT22;16268;49.880;8.648;2022-08-19T03:45:16;21.60;99.90
29241;DHT22;16268;49.880;8.648;2022-08-19T03:47:42;21.50;99.90
29241;DHT22;16268;49.880;8.648;2022-08-19T03:50:08;21.50;99.90
29241;DHT22;16268;49.880;8.648;2022-08-19T03:52:34;21.60;99.90
29241;DHT22;16268;49.880;8.648;2022-08-19T03:55:01;21.70;99.90
29241;DHT22;16268;49.880;8.648;2022-08-19T03:57:27;21.80;99.90
29241;DHT22;16268;49.880;8.648;2022-08-19T03:59:52;21.80;99.90
29241;DHT22;16268;49.880;8.648;2022-08-19T04:02:18;21.80;99.90
29241;DHT22;16268;49.880;8.648;2022-08-19T04:04:44;21.90;99.90
29241;DHT22;16268;49.880;8.648;2022-08-19T04:07:11;21.80;99.90
29241;DHT22;16268;49.880;8.648;2022-08-19T04:09:40;21.80;99.90
29241;DHT22;16268;49.880;8.648;2022-08-19T04:12:05;21.80;99.90
29241;DHT22;16268;49.880;8.648;2022-08-19T04:14:31;21.80;99.90
29241;DHT22;16268;49.880;8.648;2022-08-19T04:16:58;21.70;99.90
29241;DHT22;16268;49.880;8.648;2022-08-19T04:19:24;21.70;99.90
29241;DHT22;16268;49.880;8.648;2022-08-19T04:21:53;21.70;99.90
29241;DHT22;16268;49.880;8.648;2022-08-19T04:24:20;21.70;99.90
29241;DHT22;16268;49.880;8.648;2022-08-19T04:26:46;21.60;99.90
29241;DHT22;16268;49.880;8.648;2022-08-19T04:29:23;21.60;99.90
29241;DHT22;16268;49.880;8.648;2022-08-19T04:31:51;21.50;99.90
29241;DHT22;16268;49.880;8.648;2022-08-19T04:34:19;21.50;99.90
29241;DHT22;16268;49.880;8.648;2022-08-19T04:36:47;21.60;99.90
29241;DHT22;16268;49.880;8.648;2022-08-19T04:39:18;21.60;99.90
29241;DHT22;16268;49.880;8.648;2022-08-19T04:41:44;21.60;99.90
29241;DHT22;16268;49.880;8.648;2022-08-19T04:44:30;21.50;99.90
29241;DHT22;16268;49.880;8.648;2022-08-19T04:46:56;21.60;99.90
29241;DHT22;16268;49.880;8.648;2022-08-19T04:49:22;21.70;99.90
29241;DHT22;16268;49.880;8.648;2022-08-19T04:51:49;21.70;99.90
29241;DHT22;16268;49.880;8.648;2022-08-19T04:54:18;21.70;99.90
29241;DHT22;16268;49.880;8.648;2022-08-19T04:56:51;21.60;99.90
29241;DHT22;16268;49.880;8.648;2022-08-19T04:59:17;21.60;99.90
29241;DHT22;16268;49.880;8.648;2022-08-19T05:01:44;21.50;99.90
29241;DHT22;16268;49.880;8.648;2022-08-19T05:04:13;21.60;99.90
29241;DHT22;16268;49.880;8.648;2022-08-19T05:06:39;21.60;99.90
29241;DHT22;16268;49.880;8.648;2022-08-19T05:09:05;21.60;99.90
29241;DHT22;16268;49.880;8.648;2022-08-19T05:11:34;21.70;99.90
29241;DHT22;16268;49.880;8.648;2022-08-19T05:14:00;21.70;99.90
29241;DHT22;16268;49.880;8.648;2022-08-19T05:16:27;21.80;99.90
29241;DHT22;16268;49.880;8.648;2022-08-19T05:18:53;21.90;99.90
29241;DHT22;16268;49.880;8.648;2022-08-19T05:21:38;22.00;99.90
29241;DHT22;16268;49.880;8.648;2022-08-19T05:24:23;22.00;99.90
29241;DHT22;16268;49.880;8.648;2022-08-19T05:26:51;22.00;99.90
29241;DHT22;16268;49.880;8.648;2022-08-19T05:29:20;22.10;99.90
29241;DHT22;16268;49.880;8.648;2022-08-19T05:31:47;22.30;99.90
29241;DHT22;16268;49.880;8.648;2022-08-19T05:34:18;22.30;99.90
29241;DHT22;16268;49.880;8.648;2022-08-19T05:36:47;22.40;99.90
29241;DHT22;16268;49.880;8.648;2022-08-19T05:39:19;22.50;99.90
29241;DHT22;16268;49.880;8.648;2022-08-19T05:41:53;22.50;99.90
29241;DHT22;16268;49.880;8.648;2022-08-19T05:44:20;22.60;99.90
29241;DHT22;16268;49.880;8.648;2022-08-19T05:46:47;22.50;99.90
29241;DHT22;16268;49.880;8.648;2022-08-19T05:49:15;22.40;99.90
29241;DHT22;16268;49.880;8.648;2022-08-19T05:51:41;22.70;99.90
29241;DHT22;16268;49.880;8.648;2022-08-19T05:54:07;22.90;99.90
29241;DHT22;16268;49.880;8.648;2022-08-19T05:56:34;23.20;99.90
29241;DHT22;16268;49.880;8.648;2022-08-19T05:59:07;23.60;99.90
29241;DHT22;16268;49.880;8.648;2022-08-19T06:01:36;23.90;99.90
29241;DHT22;16268;49.880;8.648;2022-08-19T06:04:02;24.30;99.90
29241;DHT22;16268;49.880;8.648;2022-08-19T06:06:28;24.70;99.90
29241;DHT22;16268;49.880;8.648;2022-08-19T06:08:54;24.70;99.90
29241;DHT22;16268;49.880;8.648;2022-08-19T06:11:45;25.30;99.90
29241;DHT22;16268;49.880;8.648;2022-08-19T06:14:14;25.90;99.90
29241;DHT22;16268;49.880;8.648;2022-08-19T06:16:42;26.60;99.90
29241;DHT22;16268;49.880;8.648;2022-08-19T06:19:11;26.90;99.90
29241;DHT22;16268;49.880;8.648;2022-08-19T06:21:38;27.20;99.90
29241;DHT22;16268;49.880;8.648;2022-08-19T06:24:07;27.60;99.90
29241;DHT22;16268;49.880;8.648;2022-08-19T06:26:34;27.90;99.90
29241;DHT22;16268;49.880;8.648;2022-08-19T06:29:01;28.40;99.90
29241;DHT22;16268;49.880;8.648;2022-08-19T06:31:28;28.60;99.90
29241;DHT22;16268;49.880;8.648;2022-08-19T06:33:54;28.80;99.90
29241;DHT22;16268;49.880;8.648;2022-08-19T06:36:28;29.30;99.50
29241;DHT22;16268;49.880;8.648;2022-08-19T06:38:57;29.80;98.30
29241;DHT22;16268;49.880;8.648;2022-08-19T06:41:23;29.80;96.90
29241;DHT22;16268;49.880;8.648;2022-08-19T06:43:49;29.80;97.50
29241;DHT22;16268;49.880;8.648;2022-08-19T06:46:16;29.50;97.20
29241;DHT22;16268;49.880;8.648;2022-08-19T06:48:43;29.40;97.40
29241;DHT22;16268;49.880;8.648;2022-08-19T06:51:08;29.30;97.90
29241;DHT22;16268;49.880;8.648;2022-08-19T06:53:34;29.30;98.00
29241;DHT22;16268;49.880;8.648;2022-08-19T06:56:00;29.20;97.70
29241;DHT22;16268;49.880;8.648;2022-08-19T06:58:28;29.30;97.80
29241;DHT22;16268;49.880;8.648;2022-08-19T07:00:58;29.50;97.20
29241;DHT22;16268;49.880;8.648;2022-08-19T07:03:28;29.40;97.20
29241;DHT22;16268;49.880;8.648;2022-08-19T07:05:54;30.00;96.40
29241;DHT22;16268;49.880;8.648;2022-08-19T07:08:19;30.10;95.80
29241;DHT22;16268;49.880;8.648;2022-08-19T07:10:46;29.40;96.70
29241;DHT22;16268;49.880;8.648;2022-08-19T07:13:12;28.90;97.40
29241;DHT22;16268;49.880;8.648;2022-08-19T07:15:37;28.40;98.70
29241;DHT22;16268;49.880;8.648;2022-08-19T07:18:03;27.70;99.90
29241;DHT22;16268;49.880;8.648;2022-08-19T07:20:29;27.60;99.90
29241;DHT22;16268;49.880;8.648;2022-08-19T07:22:54;27.10;99.90
29241;DHT22;16268;49.880;8.648;2022-08-19T07:25:20;26.90;99.90
29241;DHT22;16268;49.880;8.648;2022-08-19T07:27:48;27.10;99.90
29241;DHT22;16268;49.880;8.648;2022-08-19T07:30:14;28.00;99.90
29241;DHT22;16268;49.880;8.648;2022-08-19T07:32:40;28.80;99.80
29241;DHT22;16268;49.880;8.648;2022-08-19T07:35:06;29.30;98.80
29241;DHT22;16268;49.880;8.648;2022-08-19T07:37:32;30.00;97.20
29241;DHT22;16268;49.880;8.648;2022-08-19T07:40:01;30.20;96.30
29241;DHT22;16268;49.880;8.648;2022-08-19T07:42:26;30.40;95.20
29241;DHT22;16268;49.880;8.648;2022-08-19T07:44:54;30.30;94.60
29241;DHT22;16268;49.880;8.648;2022-08-19T07:47:20;30.60;94.80
29241;DHT22;16268;49.880;8.648;2022-08-19T07:49:45;30.80;93.90
29241;DHT22;16268;49.880;8.648;2022-08-19T07:52:12;31.50;93.20
29241;DHT22;16268;49.880;8.648;2022-08-19T07:54:38;32.20;91.40
29241;DHT22;16268;49.880;8.648;2022-08-19T07:57:05;32.00;91.40
29241;DHT22;16268;49.880;8.648;2022-08-19T07:59:31;32.30;90.00
29241;DHT22;16268;49.880;8.648;2022-08-19T08:01:57;32.20;88.50
29241;DHT22;16268;49.880;8.648;2022-08-19T08:04:26;32.20;90.40
29241;DHT22;16268;49.880;8.648;2022-08-19T08:07:11;32.70;87.60
29241;DHT22;16268;49.880;8.648;2022-08-19T08:09:55;33.10;86.40
29241;DHT22;16268;49.880;8.648;2022-08-19T08:12:27;32.80;84.70
29241;DHT22;16268;49.880;8.648;2022-08-19T08:14:56;32.80;85.30
29241;DHT22;16268;49.880;8.648;2022-08-19T08:17:25;32.70;87.20
29241;DHT22;16268;49.880;8.648;2022-08-19T08:19:51;32.50;84.90
29241;DHT22;16268;49.880;8.648;2022-08-19T08:22:19;32.40;83.60
29241;DHT22;16268;49.880;8.648;2022-08-19T08:25:10;31.50;86.50
29241;DHT22;16268;49.880;8.648;2022-08-19T08:27:41;31.10;89.00
29241;DHT22;16268;49.880;8.648;2022-08-19T08:30:14;30.90;86.60
29241;DHT22;16268;49.880;8.648;2022-08-19T08:32:40;30.00;87.60
29241;DHT22;16268;49.880;8.648;2022-08-19T08:35:09;28.90;90.90
29241;DHT22;16268;49.880;8.648;2022-08-19T08:37:35;28.60;92.10
29241;DHT22;16268;49.880;8.648;2022-08-19T08:43:02;28.50;93.70
29241;DHT22;16268;49.880;8.648;2022-08-19T08:45:30;28.80;93.30
29241;DHT22;16268;49.880;8.648;2022-08-19T08:48:02;28.40;93.10
29241;DHT22;16268;49.880;8.648;2022-08-19T08:50:34;29.00;94.10
29241;DHT22;16268;49.880;8.648;2022-08-19T08:53:03;29.00;93.20
29241;DHT22;16268;49.880;8.648;2022-08-19T08:55:30;29.50;92.70
29241;DHT22;16268;49.880;8.648;2022-08-19T08:58:02;29.30;92.30
29241;DHT22;16268;49.880;8.648;2022-08-19T09:00:32;29.50;91.80
29241;DHT22;16268;49.880;8.648;2022-08-19T09:02:58;29.40;91.30
29241;DHT22;16268;49.880;8.648;2022-08-19T09:05:45;29.80;91.60
29241;DHT22;16268;49.880;8.648;2022-08-19T09:08:37;30.80;90.10
29241;DHT22;16268;49.880;8.648;2022-08-19T09:11:08;30.80;88.30
29241;DHT22;16268;49.880;8.648;2022-08-19T09:14:31;30.90;86.60
29241;DHT22;16268;49.880;8.648;2022-08-19T09:16:45;31.20;86.20
29241;DHT22;16268;49.880;8.648;2022-08-19T09:19:10;31.00;85.40
29241;DHT22;16268;49.880;8.648;2022-08-19T09:21:36;30.70;84.80
29241;DHT22;16268;49.880;8.648;2022-08-19T09:24:04;30.70;85.70
29241;DHT22;16268;49.880;8.648;2022-08-19T09:26:31;30.60;87.40
29241;DHT22;16268;49.880;8.648;2022-08-19T09:29:00;30.60;87.50
29241;DHT22;16268;49.880;8.648;2022-08-19T09:31:29;30.20;88.20
29241;DHT22;16268;49.880;8.648;2022-08-19T09:33:55;29.90;89.30
29241;DHT22;16268;49.880;8.648;2022-08-19T09:36:25;29.10;90.90
29241;DHT22;16268;49.880;8.648;2022-08-19T09:38:52;29.00;91.60
29241;DHT22;16268;49.880;8.648;2022-08-19T09:41:20;28.90;91.90
29241;DHT22;16268;49.880;8.648;2022-08-19T09:43:48;28.70;92.60
29241;DHT22;16268;49.880;8.648;2022-08-19T09:46:18;28.20;93.10
29241;DHT22;16268;49.880;8.648;2022-08-19T09:48:47;28.00;93.90
29241;DHT22;16268;49.880;8.648;2022-08-19T09:51:15;28.30;94.30
29241;DHT22;16268;49.880;8.648;2022-08-19T09:53:43;28.70;93.70
29241;DHT22;16268;49.880;8.648;2022-08-19T09:56:09;28.80;93.40
29241;DHT22;16268;49.880;8.648;2022-08-19T09:58:36;28.80;93.30
29241;DHT22;16268;49.880;8.648;2022-08-19T10:01:03;29.20;92.80
29241;DHT22;16268;49.880;8.648;2022-08-19T10:03:31;29.50;92.20
29241;DHT22;16268;49.880;8.648;2022-08-19T10:05:59;30.20;91.60
29241;DHT22;16268;49.880;8.648;2022-08-19T10:08:30;30.70;91.00
29241;DHT22;16268;49.880;8.648;2022-08-19T10:10:56;30.80;90.50
29241;DHT22;16268;49.880;8.648;2022-08-19T10:13:24;30.10;90.50
29241;DHT22;16268;49.880;8.648;2022-08-19T10:15:53;29.60;91.00
29241;DHT22;16268;49.880;8.648;2022-08-19T10:18:20;29.70;92.40
29241;DHT22;16268;49.880;8.648;2022-08-19T10:20:47;30.30;90.70
29241;DHT22;16268;49.880;8.648;2022-08-19T10:23:14;30.20;90.40
29241;DHT22;16268;49.880;8.648;2022-08-19T10:25:41;29.90;90.70
29241;DHT22;16268;49.880;8.648;2022-08-19T10:28:07;29.40;90.90
29241;DHT22;16268;49.880;8.648;2022-08-19T10:30:34;29.10;91.20
29241;DHT22;16268;49.880;8.648;2022-08-19T10:33:03;28.80;92.10
29241;DHT22;16268;49.880;8.648;2022-08-19T10:35:28;29.00;92.10
29241;DHT22;16268;49.880;8.648;2022-08-19T10:37:55;29.80;91.40
29241;DHT22;16268;49.880;8.648;2022-08-19T10:40:28;30.30;90.40
29241;DHT22;16268;49.880;8.648;2022-08-19T10:42:55;30.20;89.90
29241;DHT22;16268;49.880;8.648;2022-08-19T10:45:21;30.00;88.70
29241;DHT22;16268;49.880;8.648;2022-08-19T10:47:48;29.70;90.00
29241;DHT22;16268;49.880;8.648;2022-08-19T10:50:14;29.30;89.50
29241;DHT22;16268;49.880;8.648;2022-08-19T10:53:04;29.40;90.60
29241;DHT22;16268;49.880;8.648;2022-08-19T10:55:30;29.60;90.20
29241;DHT22;16268;49.880;8.648;2022-08-19T10:58:16;29.60;89.40
29241;DHT22;16268;49.880;8.648;2022-08-19T11:00:43;29.60;88.80
29241;DHT22;16268;49.880;8.648;2022-08-19T11:03:15;29.70;88.10
29241;DHT22;16268;49.880;8.648;2022-08-19T11:05:41;30.10;86.10
29241;DHT22;16268;49.880;8.648;2022-08-19T11:08:08;29.60;85.40
29241;DHT22;16268;49.880;8.648;2022-08-19T11:10:41;29.80;85.60
29241;DHT22;16268;49.880;8.648;2022-08-19T11:13:06;30.00;84.60
29241;DHT22;16268;49.880;8.648;2022-08-19T11:15:32;30.10;84.30
29241;DHT22;16268;49.880;8.648;2022-08-19T11:17:58;30.20;83.60
29241;DHT22;16268;49.880;8.648;2022-08-19T11:20:24;30.20;83.80
29241;DHT22;16268;49.880;8.648;2022-08-19T11:22:52;30.30;82.70
29241;DHT22;16268;49.880;8.648;2022-08-19T11:25:18;30.20;80.90
29241;DHT22;16268;49.880;8.648;2022-08-19T11:27:43;30.30;77.80
29241;DHT22;16268;49.880;8.648;2022-08-19T11:30:11;30.30;76.90
29241;DHT22;16268;49.880;8.648;2022-08-19T11:32:40;30.40;78.70
29241;DHT22;16268;49.880;8.648;2022-08-19T11:35:06;30.70;79.40
29241;DHT22;16268;49.880;8.648;2022-08-19T11:37:32;30.60;80.00
29241;DHT22;16268;49.880;8.648;2022-08-19T11:40:02;30.40;75.10
29241;DHT22;16268;49.880;8.648;2022-08-19T11:42:28;30.30;76.00
29241;DHT22;16268;49.880;8.648;2022-08-19T11:45:12;30.40;76.10
29241;DHT22;16268;49.880;8.648;2022-08-19T11:47:39;30.30;76.60
29241;DHT22;16268;49.880;8.648;2022-08-19T11:50:05;30.50;77.30
29241;DHT22;16268;49.880;8.648;2022-08-19T11:52:31;30.70;76.30
29241;DHT22;16268;49.880;8.648;2022-08-19T11:54:56;31.10;75.70
29241;DHT22;16268;49.880;8.648;2022-08-19T11:57:22;31.10;74.10
29241;DHT22;16268;49.880;8.648;2022-08-19T11:59:49;30.90;75.90
29241;DHT22;16268;49.880;8.648;2022-08-19T12:02:15;30.90;75.00
29241;DHT22;16268;49.880;8.648;2022-08-19T12:04:41;30.90;76.00
29241;DHT22;16268;49.880;8.648;2022-08-19T12:07:06;30.60;74.70
29241;DHT22;16268;49.880;8.648;2022-08-19T12:09:32;30.30;76.60
29241;DHT22;16268;49.880;8.648;2022-08-19T12:12:00;30.30;74.60
29241;DHT22;16268;49.880;8.648;2022-08-19T12:14:27;30.40;74.80
29241;DHT22;16268;49.880;8.648;2022-08-19T12:16:53;30.40;74.60
29241;DHT22;16268;49.880;8.648;2022-08-19T12:19:19;30.50;74.80
29241;DHT22;16268;49.880;8.648;2022-08-19T12:21:45;30.80;74.50
29241;DHT22;16268;49.880;8.648;2022-08-19T12:24:10;31.00;71.90
29241;DHT22;16268;49.880;8.648;2022-08-19T12:26:36;31.00;71.70
29241;DHT22;16268;49.880;8.648;2022-08-19T12:29:02;30.90;72.00
29241;DHT22;16268;49.880;8.648;2022-08-19T12:31:28;30.90;70.70
29241;DHT22;16268;49.880;8.648;2022-08-19T12:33:55;30.90;71.10
29241;DHT22;16268;49.880;8.648;2022-08-19T12:36:20;31.10;70.80
29241;DHT22;16268;49.880;8.648;2022-08-19T12:38:47;31.40;70.40
29241;DHT22;16268;49.880;8.648;2022-08-19T12:41:15;31.60;69.20
29241;DHT22;16268;49.880;8.648;2022-08-19T12:43:42;31.40;68.40
29241;DHT22;16268;49.880;8.648;2022-08-19T12:46:08;31.40;67.80
29241;DHT22;16268;49.880;8.648;2022-08-19T12:48:34;31.40;67.10
29241;DHT22;16268;49.880;8.648;2022-08-19T12:51:06;31.50;66.30
29241;DHT22;16268;49.880;8.648;2022-08-19T12:53:31;31.80;65.00
29241;DHT22;16268;49.880;8.648;2022-08-19T12:55:58;31.60;65.80
29241;DHT22;16268;49.880;8.648;2022-08-19T12:58:25;31.80;64.20
29241;DHT22;16268;49.880;8.648;2022-08-19T13:00:51;32.00;62.40
29241;DHT22;16268;49.880;8.648;2022-08-19T13:03:17;31.90;61.90
29241;DHT22;16268;49.880;8.648;2022-08-19T13:05:42;31.50;61.80
29241;DHT22;16268;49.880;8.648;2022-08-19T13:08:08;31.40;61.10
29241;DHT22;16268;49.880;8.648;2022-08-19T13:10:35;31.20;62.30
29241;DHT22;16268;49.880;8.648;2022-08-19T13:13:03;31.00;63.60
29241;DHT22;16268;49.880;8.648;2022-08-19T13:15:29;31.30;64.30
29241;DHT22;16268;49.880;8.648;2022-08-19T13:17:58;31.60;63.30
29241;DHT22;16268;49.880;8.648;2022-08-19T13:20:25;31.60;61.70
29241;DHT22;16268;49.880;8.648;2022-08-19T13:22:51;31.60;59.80
29241;DHT22;16268;49.880;8.648;2022-08-19T13:25:17;31.00;61.60
29241;DHT22;16268;49.880;8.648;2022-08-19T13:27:44;30.70;63.10
29241;DHT22;16268;49.880;8.648;2022-08-19T13:30:12;30.60;64.00
29241;DHT22;16268;49.880;8.648;2022-08-19T13:32:56;30.50;64.10
29241;DHT22;16268;49.880;8.648;2022-08-19T13:35:49;30.20;62.90
29241;DHT22;16268;49.880;8.648;2022-08-19T13:38:20;30.30;64.00
29241;DHT22;16268;49.880;8.648;2022-08-19T13:40:47;30.40;62.30
29241;DHT22;16268;49.880;8.648;2022-08-19T13:43:13;30.50;62.70
29241;DHT22;16268;49.880;8.648;2022-08-19T13:45:42;30.70;62.30
29241;DHT22;16268;49.880;8.648;2022-08-19T13:48:08;30.70;62.60
29241;DHT22;16268;49.880;8.648;2022-08-19T13:50:37;30.90;62.40
29241;DHT22;16268;49.880;8.648;2022-08-19T13:53:03;31.20;61.70
29241;DHT22;16268;49.880;8.648;2022-08-19T13:55:30;31.20;61.90
29241;DHT22;16268;49.880;8.648;2022-08-19T13:57:59;31.20;61.30
29241;DHT22;16268;49.880;8.648;2022-08-19T14:00:30;31.20;61.90
29241;DHT22;16268;49.880;8.648;2022-08-19T14:02:56;31.20;61.40
29241;DHT22;16268;49.880;8.648;2022-08-19T14:05:24;31.20;62.00
29241;DHT22;16268;49.880;8.648;2022-08-19T14:07:50;31.10;62.30
29241;DHT22;16268;49.880;8.648;2022-08-19T14:10:17;30.90;61.20
29241;DHT22;16268;49.880;8.648;2022-08-19T14:12:43;30.80;59.00
29241;DHT22;16268;49.880;8.648;2022-08-19T14:15:10;30.70;58.90
29241;DHT22;16268;49.880;8.648;2022-08-19T14:17:38;30.40;59.80
29241;DHT22;16268;49.880;8.648;2022-08-19T14:20:06;30.20;61.10
29241;DHT22;16268;49.880;8.648;2022-08-19T14:22:35;30.00;61.60
29241;DHT22;16268;49.880;8.648;2022-08-19T14:25:01;29.90;61.10
29241;DHT22;16268;49.880;8.648;2022-08-19T14:27:26;29.90;61.60
29241;DHT22;16268;49.880;8.648;2022-08-19T14:29:52;29.80;62.20
29241;DHT22;16268;49.880;8.648;2022-08-19T14:32:18;30.10;62.90
29241;DHT22;16268;49.880;8.648;2022-08-19T14:34:44;30.50;61.80
29241;DHT22;16268;49.880;8.648;2022-08-19T14:37:11;30.60;59.70
29241;DHT22;16268;49.880;8.648;2022-08-19T14:39:39;30.70;59.10
29241;DHT22;16268;49.880;8.648;2022-08-19T14:42:08;30.80;59.60
29241;DHT22;16268;49.880;8.648;2022-08-19T14:44:34;30.90;59.80
29241;DHT22;16268;49.880;8.648;2022-08-19T14:47:00;30.90;59.40
29241;DHT22;16268;49.880;8.648;2022-08-19T14:49:25;30.90;59.40
29241;DHT22;16268;49.880;8.648;2022-08-19T14:51:51;30.60;60.00
29241;DHT22;16268;49.880;8.648;2022-08-19T14:54:17;30.60;59.30
29241;DHT22;16268;49.880;8.648;2022-08-19T14:56:45;30.70;58.10
29241;DHT22;16268;49.880;8.648;2022-08-19T14:59:10;30.60;58.80
29241;DHT22;16268;49.880;8.648;2022-08-19T15:01:36;30.60;59.00
29241;DHT22;16268;49.880;8.648;2022-08-19T15:04:01;30.50;58.30
29241;DHT22;16268;49.880;8.648;2022-08-19T15:06:27;30.50;58.10
29241;DHT22;16268;49.880;8.648;2022-08-19T15:08:53;30.40;58.10
29241;DHT22;16268;49.880;8.648;2022-08-19T15:11:22;30.50;58.20
29241;DHT22;16268;49.880;8.648;2022-08-19T15:13:48;30.30;58.30
29241;DHT22;16268;49.880;8.648;2022-08-19T15:16:15;30.40;58.30
29241;DHT22;16268;49.880;8.648;2022-08-19T15:18:45;30.30;58.20
29241;DHT22;16268;49.880;8.648;2022-08-19T15:21:13;30.30;58.80
29241;DHT22;16268;49.880;8.648;2022-08-19T15:23:41;30.30;58.90
29241;DHT22;16268;49.880;8.648;2022-08-19T15:26:11;30.20;59.10
29241;DHT22;16268;49.880;8.648;2022-08-19T15:28:36;30.30;59.20
29241;DHT22;16268;49.880;8.648;2022-08-19T15:31:03;30.40;59.00
29241;DHT22;16268;49.880;8.648;2022-08-19T15:33:31;30.40;57.50
29241;DHT22;16268;49.880;8.648;2022-08-19T15:35:56;30.50;58.20
29241;DHT22;16268;49.880;8.648;2022-08-19T15:38:22;30.40;58.30